Time;durP1;ratioP1;P1;durP2;ratioP2;P2;SDS_P1;SDS_P2;PMS_P1;PMS_P2;Temp;Humidity;BMP_temperature;BMP_pressure;BME280_temperature;BME280_humidity;BME280_pressure;Samples;Min_cycle;Max_cycle;Signal;HPM_P1;HPM_P2
2022/01/12 00:00:34;;;;;;;0.30;0.30;;;;;;;;;;5145740;27;20273;-75
2022/01/12 00:03:00;;;;;;;0.30;0.30;;;;;;;;;;5128768;27;20514;-74
2022/01/12 00:05:26;;;;;;;1.63;1.53;;;;;;;;;;5124823;28;20505;-75
2022/01/12 00:07:53;;;;;;;0.30;0.30;;;;;;;;;;5124705;28;20202;-76
2022/01/12 00:10:19;;;;;;;0.40;0.40;;;;;;;;;;5131606;27;20424;-75
2022/01/12 00:12:45;;;;;;;0.30;0.30;;;;;;;;;;5145602;27;20201;-75
2022/01/12 00:15:14;;;;;;;0.30;0.30;;;;;;;;;;5145479;27;20200;-75
2022/01/12 00:17:40;;;;;;;0.30;0.30;;;;;;;;;;5144915;27;20212;-76
2022/01/12 00:20:06;;;;;;;0.30;0.30;;;;;;;;;;5145391;27;20405;-75
2022/01/12 00:22:33;;;;;;;0.30;0.30;;;;;;;;;;5144991;27;20500;-76
2022/01/12 00:25:12;;;;;;;0.30;0.30;;;;;;;;;;5145191;27;20442;-75
2022/01/12 00:33:10;;;;;;;0.30;0.30;;;;;;;;;;5145072;27;20203;-75
2022/01/12 00:35:36;;;;;;;0.30;0.30;;;;;;;;;;5145234;27;20445;-75
2022/01/12 00:38:03;;;;;;;0.27;0.27;;;;;;;;;;5144947;27;20235;-76
2022/01/12 00:40:29;;;;;;;0.30;0.30;;;;;;;;;;5145082;27;20204;-75
2022/01/12 00:42:55;;;;;;;0.30;0.30;;;;;;;;;;5144873;27;20425;-75
2022/01/12 00:45:22;;;;;;;0.30;0.30;;;;;;;;;;5144030;27;20225;-75
2022/01/12 00:47:49;;;;;;;0.30;0.30;;;;;;;;;;5144763;27;20257;-75
2022/01/12 00:50:15;;;;;;;0.30;0.30;;;;;;;;;;5145005;27;20205;-75
2022/01/12 00:52:42;;;;;;;0.30;0.30;;;;;;;;;;5144977;27;20208;-76
2022/01/12 00:55:08;;;;;;;0.40;0.40;;;;;;;;;;5144628;27;20197;-74
2022/01/12 00:57:34;;;;;;;0.30;0.30;;;;;;;;;;5145181;27;20424;-75
2022/01/12 01:00:01;;;;;;;0.30;0.30;;;;;;;;;;5144711;27;20265;-75
2022/01/12 01:02:28;;;;;;;0.43;0.43;;;;;;;;;;5144184;27;20201;-75
2022/01/12 01:04:56;;;;;;;1.23;1.23;;;;;;;;;;5144499;27;20224;-75
2022/01/12 01:07:23;;;;;;;0.30;0.30;;;;;;;;;;5144732;27;20396;-76
2022/01/12 01:09:58;;;;;;;0.57;0.57;;;;;;;;;;5144540;27;20282;-75
2022/01/12 01:12:24;;;;;;;0.30;0.30;;;;;;;;;;5144560;27;20200;-75
2022/01/12 01:15:02;;;;;;;0.20;0.20;;;;;;;;;;5144481;27;20287;-75
2022/01/12 01:25:57;;;;;;;3.77;3.60;;;;;;;;;;5081311;28;20249;-75
2022/01/12 01:28:23;;;;;;;0.30;0.30;;;;;;;;;;5115731;27;20201;-74
2022/01/12 01:30:50;;;;;;;0.30;0.30;;;;;;;;;;5144048;28;20238;-74
2022/01/12 01:33:17;;;;;;;2.70;2.13;;;;;;;;;;5144427;27;20503;-75
2022/01/12 01:35:49;;;;;;;0.40;0.40;;;;;;;;;;5144112;27;20200;-75
2022/01/12 01:38:16;;;;;;;0.33;0.33;;;;;;;;;;5144390;27;20437;-75
2022/01/12 01:40:42;;;;;;;0.30;0.30;;;;;;;;;;5144087;27;20205;-75
2022/01/12 01:43:17;;;;;;;0.30;0.30;;;;;;;;;;5144013;27;20205;-74
2022/01/12 01:53:57;;;;;;;0.30;0.30;;;;;;;;;;5143966;28;20188;-75
2022/01/12 01:56:24;;;;;;;0.30;0.30;;;;;;;;;;5144260;27;20250;-75
2022/01/12 01:58:50;;;;;;;0.30;0.30;;;;;;;;;;5147991;27;20201;-74
2022/01/12 02:01:16;;;;;;;0.30;0.30;;;;;;;;;;5148215;27;20325;-75
2022/01/12 02:03:43;;;;;;;0.30;0.30;;;;;;;;;;5148099;27;20396;-74
2022/01/12 02:06:10;;;;;;;0.30;0.30;;;;;;;;;;5144096;27;20400;-74
2022/01/12 02:08:38;;;;;;;0.53;0.53;;;;;;;;;;5127338;27;20229;-74
2022/01/12 02:11:04;;;;;;;0.30;0.30;;;;;;;;;;5127343;27;20520;-75
2022/01/12 02:13:31;;;;;;;0.30;0.30;;;;;;;;;;5127272;27;20247;-75
2022/01/12 02:15:58;;;;;;;0.30;0.30;;;;;;;;;;5127296;28;20239;-75
2022/01/12 02:18:37;;;;;;;0.20;0.20;;;;;;;;;;5126957;28;20213;-75
2022/01/12 02:40:18;;;;;;;0.30;0.30;;;;;;;;;;5135868;27;20343;-74
2022/01/12 02:42:49;;;;;;;0.30;0.30;;;;;;;;;;5147273;27;20254;-74
2022/01/12 02:50:47;;;;;;;0.30;0.30;;;;;;;;;;5147302;27;20224;-75
2022/01/12 02:55:59;;;;;;;0.30;0.30;;;;;;;;;;5147203;27;20249;-74
2022/01/12 02:58:25;;;;;;;0.30;0.30;;;;;;;;;;5147041;27;20201;-74
2022/01/12 03:01:05;;;;;;;1.57;1.47;;;;;;;;;;5142700;27;20239;-74
2022/01/12 03:03:35;;;;;;;0.30;0.30;;;;;;;;;;5126466;28;20190;-75
2022/01/12 03:06:03;;;;;;;0.20;0.20;;;;;;;;;;5126330;28;20248;-75
2022/01/12 03:08:36;;;;;;;0.30;0.30;;;;;;;;;;5125291;28;20222;-74
2022/01/12 03:11:03;;;;;;;0.27;0.27;;;;;;;;;;5126006;28;20190;-74
2022/01/12 03:13:29;;;;;;;0.30;0.30;;;;;;;;;;5125782;28;20403;-74
2022/01/12 03:15:56;;;;;;;0.30;0.30;;;;;;;;;;5125727;28;20227;-75
2022/01/12 03:18:23;;;;;;;0.30;0.30;;;;;;;;;;5125892;28;20209;-75
2022/01/12 03:20:49;;;;;;;0.20;0.20;;;;;;;;;;5125903;28;20198;-75
2022/01/12 03:23:15;;;;;;;0.30;0.30;;;;;;;;;;5125759;28;20239;-75
2022/01/12 03:25:43;;;;;;;0.30;0.30;;;;;;;;;;5125584;28;20313;-74
2022/01/12 03:28:09;;;;;;;0.30;0.30;;;;;;;;;;5125921;27;20246;-74
2022/01/12 03:30:46;;;;;;;0.30;0.30;;;;;;;;;;5137463;27;20551;-75
2022/01/12 03:33:19;;;;;;;0.20;0.20;;;;;;;;;;5146324;27;20216;-75
2022/01/12 03:35:51;;;;;;;0.30;0.30;;;;;;;;;;5146102;27;20221;-75
2022/01/12 03:38:20;;;;;;;0.60;0.60;;;;;;;;;;5146397;27;20260;-75
2022/01/12 03:40:48;;;;;;;0.30;0.30;;;;;;;;;;5146284;27;20246;-75
2022/01/12 03:43:14;;;;;;;0.57;0.57;;;;;;;;;;5146177;27;20201;-75
2022/01/12 03:45:41;;;;;;;0.20;0.20;;;;;;;;;;5145911;27;20265;-74
2022/01/12 03:48:07;;;;;;;0.30;0.30;;;;;;;;;;5145804;27;20250;-74
2022/01/12 03:50:33;;;;;;;0.30;0.30;;;;;;;;;;5145582;27;20249;-74
2022/01/12 03:52:59;;;;;;;0.30;0.30;;;;;;;;;;5128142;27;20250;-75
2022/01/12 03:55:25;;;;;;;0.30;0.30;;;;;;;;;;5125219;28;20202;-75
2022/01/12 03:57:53;;;;;;;0.20;0.20;;;;;;;;;;5124661;28;20216;-75
2022/01/12 04:00:19;;;;;;;0.30;0.30;;;;;;;;;;5125337;28;20202;-75
2022/01/12 04:02:45;;;;;;;0.23;0.23;;;;;;;;;;5125384;28;20205;-75
2022/01/12 04:05:26;;;;;;;0.30;0.30;;;;;;;;;;5125126;28;20267;-75
2022/01/12 04:10:36;;;;;;;0.23;0.23;;;;;;;;;;5125002;28;20250;-74
2022/01/12 04:13:04;;;;;;;0.30;0.30;;;;;;;;;;5124788;28;20205;-75
2022/01/12 04:15:30;;;;;;;0.30;0.30;;;;;;;;;;5125007;28;20288;-75
2022/01/12 04:17:57;;;;;;;0.30;0.30;;;;;;;;;;5124720;28;20209;-74
2022/01/12 04:20:24;;;;;;;0.30;0.30;;;;;;;;;;5136831;27;20213;-75
2022/01/12 04:25:34;;;;;;;0.40;0.40;;;;;;;;;;5145103;27;20220;-75
2022/01/12 04:28:00;;;;;;;0.20;0.20;;;;;;;;;;5145425;27;20201;-74
2022/01/12 04:30:28;;;;;;;0.30;0.30;;;;;;;;;;5145723;27;20262;-74
2022/01/12 04:32:54;;;;;;;0.30;0.30;;;;;;;;;;5144852;27;20222;-74
2022/01/12 04:35:24;;;;;;;0.30;0.30;;;;;;;;;;5144858;27;20237;-75
2022/01/12 04:37:51;;;;;;;0.30;0.30;;;;;;;;;;5144857;27;20201;-74
2022/01/12 04:40:18;;;;;;;0.30;0.30;;;;;;;;;;5145074;27;20352;-75
2022/01/12 04:42:44;;;;;;;0.30;0.30;;;;;;;;;;5144972;27;20496;-74
2022/01/12 04:45:29;;;;;;;0.30;0.30;;;;;;;;;;5144893;27;20539;-74
2022/01/12 04:48:07;;;;;;;0.30;0.30;;;;;;;;;;5144775;27;20197;-75
2022/01/12 04:50:35;;;;;;;0.30;0.30;;;;;;;;;;5145021;27;20237;-74
2022/01/12 04:53:02;;;;;;;0.30;0.30;;;;;;;;;;5144578;27;20281;-74
2022/01/12 04:55:28;;;;;;;0.20;0.20;;;;;;;;;;5144754;27;20234;-75
2022/01/12 04:57:55;;;;;;;0.30;0.30;;;;;;;;;;5144277;27;20319;-74
2022/01/12 05:00:22;;;;;;;0.30;0.30;;;;;;;;;;5144424;27;20234;-74
2022/01/12 05:08:48;;;;;;;0.30;0.30;;;;;;;;;;5081413;28;20221;-75
2022/01/12 05:13:59;;;;;;;0.30;0.30;;;;;;;;;;5144501;27;20231;-75
2022/01/12 05:16:26;;;;;;;0.30;0.30;;;;;;;;;;5144421;27;20436;-73
2022/01/12 05:18:53;;;;;;;0.30;0.30;;;;;;;;;;5144532;27;20381;-75
2022/01/12 05:21:22;;;;;;;0.77;0.77;;;;;;;;;;5144466;27;20257;-76
2022/01/12 05:23:48;;;;;;;0.30;0.30;;;;;;;;;;5143995;27;20222;-76
2022/01/12 05:26:14;;;;;;;0.20;0.20;;;;;;;;;;5143727;27;20246;-75
2022/01/12 05:28:41;;;;;;;0.30;0.30;;;;;;;;;;5143823;27;20201;-75
2022/01/12 05:31:08;;;;;;;0.30;0.30;;;;;;;;;;5143542;27;20193;-75
2022/01/12 05:33:34;;;;;;;0.20;0.20;;;;;;;;;;5143730;27;20197;-76
2022/01/12 05:36:03;;;;;;;0.30;0.30;;;;;;;;;;5143884;27;20265;-74
2022/01/12 05:38:31;;;;;;;0.30;0.30;;;;;;;;;;5144066;27;20223;-75
2022/01/12 05:40:58;;;;;;;0.30;0.30;;;;;;;;;;5143908;28;20276;-74
2022/01/12 05:43:27;;;;;;;0.30;0.30;;;;;;;;;;5144100;28;20511;-75
2022/01/12 05:45:55;;;;;;;0.30;0.30;;;;;;;;;;5143636;27;20250;-75
2022/01/12 05:51:08;;;;;;;0.30;0.30;;;;;;;;;;5143890;28;20507;-74
2022/01/12 05:53:36;;;;;;;0.23;0.23;;;;;;;;;;5128342;27;20189;-75
2022/01/12 05:56:02;;;;;;;0.30;0.30;;;;;;;;;;5123113;28;20202;-75
2022/01/12 05:58:29;;;;;;;0.30;0.30;;;;;;;;;;5124549;28;20194;-75
2022/01/12 06:00:55;;;;;;;0.20;0.20;;;;;;;;;;5143997;27;20201;-75
2022/01/12 06:03:21;;;;;;;2.50;2.30;;;;;;;;;;5143861;27;20495;-74
2022/01/12 06:05:47;;;;;;;0.30;0.30;;;;;;;;;;5143623;27;20221;-75
2022/01/12 06:08:13;;;;;;;0.20;0.20;;;;;;;;;;5143951;27;20221;-75
2022/01/12 06:10:41;;;;;;;0.30;0.30;;;;;;;;;;5143934;27;20246;-75
2022/01/12 06:13:07;;;;;;;0.50;0.50;;;;;;;;;;5143626;27;20246;-75
2022/01/12 06:15:33;;;;;;;0.30;0.30;;;;;;;;;;5143911;27;20234;-74
2022/01/12 06:18:00;;;;;;;0.30;0.30;;;;;;;;;;5143584;27;20538;-75
2022/01/12 06:20:26;;;;;;;0.20;0.20;;;;;;;;;;5143704;27;20211;-75
2022/01/12 06:22:52;;;;;;;0.30;0.30;;;;;;;;;;5143135;27;20230;-75
2022/01/12 06:25:18;;;;;;;0.30;0.30;;;;;;;;;;5143784;27;20204;-74
2022/01/12 06:27:52;;;;;;;0.30;0.30;;;;;;;;;;5143796;27;20201;-75
2022/01/12 06:33:02;;;;;;;2.10;2.00;;;;;;;;;;5143426;28;20188;-74
2022/01/12 06:35:29;;;;;;;0.97;0.97;;;;;;;;;;5144203;27;20324;-75
2022/01/12 06:37:55;;;;;;;0.30;0.30;;;;;;;;;;5143315;27;20197;-76
2022/01/12 06:40:21;;;;;;;0.23;0.23;;;;;;;;;;5143452;27;20226;-74
2022/01/12 06:42:49;;;;;;;0.30;0.30;;;;;;;;;;5143802;27;20208;-75
2022/01/12 06:45:15;;;;;;;0.30;0.30;;;;;;;;;;5146579;27;20201;-75
2022/01/12 06:47:41;;;;;;;0.63;0.63;;;;;;;;;;5147302;27;20201;-75
2022/01/12 06:50:08;;;;;;;0.20;0.20;;;;;;;;;;5146971;27;20209;-75
2022/01/12 06:52:34;;;;;;;0.30;0.30;;;;;;;;;;5147663;27;20242;-75
2022/01/12 06:55:01;;;;;;;0.30;0.30;;;;;;;;;;5147114;27;20544;-75
2022/01/12 06:57:27;;;;;;;0.30;0.30;;;;;;;;;;5147180;27;20382;-75
2022/01/12 06:59:55;;;;;;;0.30;0.30;;;;;;;;;;5146892;27;20561;-75
2022/01/12 07:02:21;;;;;;;0.30;0.30;;;;;;;;;;5146431;27;20209;-75
2022/01/12 07:04:47;;;;;;;0.30;0.30;;;;;;;;;;5146806;27;20197;-75
2022/01/12 07:07:13;;;;;;;0.30;0.30;;;;;;;;;;5146505;27;20213;-75
2022/01/12 07:09:39;;;;;;;0.30;0.30;;;;;;;;;;5146875;27;20234;-74
2022/01/12 07:12:06;;;;;;;0.30;0.30;;;;;;;;;;5134682;27;20317;-75
2022/01/12 07:14:32;;;;;;;0.27;0.27;;;;;;;;;;5128701;27;20270;-73
2022/01/12 07:17:00;;;;;;;0.30;0.30;;;;;;;;;;5139812;27;20277;-75
2022/01/12 07:19:26;;;;;;;0.20;0.20;;;;;;;;;;5134379;27;20210;-74
2022/01/12 07:21:52;;;;;;;0.27;0.27;;;;;;;;;;5125949;28;20376;-75
2022/01/12 07:24:19;;;;;;;0.23;0.23;;;;;;;;;;5125970;28;20228;-75
2022/01/12 07:26:46;;;;;;;0.20;0.20;;;;;;;;;;5125899;28;20225;-74
2022/01/12 07:29:12;;;;;;;0.20;0.20;;;;;;;;;;5125768;28;20225;-74
2022/01/12 07:31:38;;;;;;;0.30;0.30;;;;;;;;;;5125814;28;20243;-73
2022/01/12 07:34:06;;;;;;;0.40;0.40;;;;;;;;;;5130808;27;20423;-77
2022/01/12 07:36:32;;;;;;;0.30;0.30;;;;;;;;;;5125760;28;20239;-74
2022/01/12 07:38:59;;;;;;;0.27;0.27;;;;;;;;;;5134617;27;20226;-74
2022/01/12 07:41:25;;;;;;;0.20;0.20;;;;;;;;;;5142195;27;20205;-72
2022/01/12 07:43:52;;;;;;;0.30;0.30;;;;;;;;;;5126206;27;20243;-73
2022/01/12 07:46:18;;;;;;;0.20;0.20;;;;;;;;;;5132393;27;20214;-72
2022/01/12 07:48:44;;;;;;;0.30;0.30;;;;;;;;;;5138104;27;20274;-72
2022/01/12 07:51:12;;;;;;;0.27;0.27;;;;;;;;;;5124774;28;20206;-71
2022/01/12 07:53:38;;;;;;;0.30;0.30;;;;;;;;;;5132598;27;20205;-73
2022/01/12 07:56:05;;;;;;;0.30;0.30;;;;;;;;;;5135359;27;20392;-71
2022/01/12 07:58:32;;;;;;;0.97;0.97;;;;;;;;;;5138490;27;20205;-72
2022/01/12 08:00:58;;;;;;;0.20;0.20;;;;;;;;;;5142297;27;20205;-72
2022/01/12 08:03:24;;;;;;;0.30;0.30;;;;;;;;;;5145513;27;20201;-73
2022/01/12 08:05:51;;;;;;;0.30;0.30;;;;;;;;;;5145213;27;20243;-71
2022/01/12 08:08:18;;;;;;;0.20;0.20;;;;;;;;;;5145543;27;20452;-72
2022/01/12 08:10:45;;;;;;;0.20;0.20;;;;;;;;;;5145706;27;20205;-72
2022/01/12 08:13:11;;;;;;;0.30;0.30;;;;;;;;;;5145345;27;20201;-72
2022/01/12 08:15:37;;;;;;;0.20;0.20;;;;;;;;;;5145427;27;20201;-72
2022/01/12 08:18:04;;;;;;;0.20;0.20;;;;;;;;;;5145307;27;20254;-73
2022/01/12 08:20:31;;;;;;;0.27;0.27;;;;;;;;;;5145342;27;20201;-72
2022/01/12 08:22:57;;;;;;;0.20;0.20;;;;;;;;;;5145529;27;20211;-73
2022/01/12 08:25:25;;;;;;;0.20;0.20;;;;;;;;;;5145462;27;20246;-75
2022/01/12 08:27:51;;;;;;;0.20;0.20;;;;;;;;;;5144963;27;20232;-74
2022/01/12 08:30:20;;;;;;;0.30;0.30;;;;;;;;;;5145337;27;20473;-74
2022/01/12 08:32:47;;;;;;;0.20;0.20;;;;;;;;;;5140685;27;20220;-76
2022/01/12 08:35:13;;;;;;;0.20;0.20;;;;;;;;;;5127477;27;20315;-76
2022/01/12 08:37:40;;;;;;;0.20;0.20;;;;;;;;;;5124867;27;20202;-74
2022/01/12 08:40:07;;;;;;;0.20;0.20;;;;;;;;;;5134814;27;20523;-76
2022/01/12 08:42:35;;;;;;;0.20;0.20;;;;;;;;;;5124657;28;20202;-76
2022/01/12 08:45:02;;;;;;;0.20;0.20;;;;;;;;;;5124626;28;20234;-76
2022/01/12 08:47:28;;;;;;;0.20;0.20;;;;;;;;;;5126335;27;20232;-74
2022/01/12 08:49:55;;;;;;;0.20;0.20;;;;;;;;;;5129150;27;20206;-76
2022/01/12 08:52:22;;;;;;;0.20;0.20;;;;;;;;;;5130209;27;20501;-74
2022/01/12 08:54:48;;;;;;;0.20;0.20;;;;;;;;;;5135716;27;20276;-74
2022/01/12 08:57:15;;;;;;;0.20;0.20;;;;;;;;;;5129209;27;20195;-74
2022/01/12 08:59:44;;;;;;;0.20;0.20;;;;;;;;;;5137351;27;20246;-75
2022/01/12 09:02:13;;;;;;;0.20;0.20;;;;;;;;;;5133689;27;20205;-77
2022/01/12 09:04:39;;;;;;;0.20;0.20;;;;;;;;;;5130932;27;20224;-75
2022/01/12 09:07:08;;;;;;;0.20;0.20;;;;;;;;;;5131283;27;20224;-75
2022/01/12 09:09:35;;;;;;;0.20;0.20;;;;;;;;;;5126809;27;20233;-73
2022/01/12 09:12:02;;;;;;;0.20;0.20;;;;;;;;;;5123791;28;20208;-74
2022/01/12 09:14:28;;;;;;;0.20;0.20;;;;;;;;;;5124012;28;20202;-74
2022/01/12 09:16:56;;;;;;;0.20;0.20;;;;;;;;;;5123236;28;20431;-73
2022/01/12 09:19:22;;;;;;;0.20;0.20;;;;;;;;;;5144310;27;20240;-75
2022/01/12 09:21:49;;;;;;;0.20;0.20;;;;;;;;;;5144305;27;20197;-74
2022/01/12 09:24:15;;;;;;;0.20;0.20;;;;;;;;;;5144151;27;20201;-74
2022/01/12 09:26:42;;;;;;;0.20;0.20;;;;;;;;;;5144241;27;20239;-74
2022/01/12 09:29:08;;;;;;;0.30;0.30;;;;;;;;;;5144222;27;20489;-74
2022/01/12 09:31:35;;;;;;;0.20;0.20;;;;;;;;;;5144362;27;20369;-76
2022/01/12 09:34:03;;;;;;;0.20;0.20;;;;;;;;;;5144448;27;20205;-74
2022/01/12 09:36:30;;;;;;;0.20;0.20;;;;;;;;;;5144457;27;20197;-76
2022/01/12 09:38:56;;;;;;;0.20;0.20;;;;;;;;;;5144145;27;20488;-75
2022/01/12 09:41:25;;;;;;;0.20;0.20;;;;;;;;;;5144677;27;20383;-74
2022/01/12 09:43:52;;;;;;;0.20;0.20;;;;;;;;;;5144395;27;20288;-75
2022/01/12 09:46:18;;;;;;;0.20;0.20;;;;;;;;;;5144380;27;20373;-74
2022/01/12 09:48:45;;;;;;;0.20;0.20;;;;;;;;;;5144282;27;20201;-75
2022/01/12 09:51:13;;;;;;;0.20;0.20;;;;;;;;;;5144305;27;20260;-76
2022/01/12 09:53:41;;;;;;;0.20;0.20;;;;;;;;;;5144728;27;20201;-75
2022/01/12 09:56:10;;;;;;;0.20;0.20;;;;;;;;;;5144261;27;20209;-75
2022/01/12 09:58:37;;;;;;;0.20;0.20;;;;;;;;;;5143776;27;20374;-74
2022/01/12 10:01:04;;;;;;;0.20;0.20;;;;;;;;;;5143845;27;20243;-75
2022/01/12 10:03:30;;;;;;;0.20;0.20;;;;;;;;;;5144411;27;20201;-77
2022/01/12 10:05:57;;;;;;;0.20;0.20;;;;;;;;;;5143713;27;20197;-75
2022/01/12 10:08:27;;;;;;;0.20;0.20;;;;;;;;;;5143848;27;20229;-75
2022/01/12 10:11:04;;;;;;;0.20;0.20;;;;;;;;;;5144165;27;20186;-76
2022/01/12 10:13:30;;;;;;;0.20;0.20;;;;;;;;;;5143226;27;20277;-75
2022/01/12 10:15:56;;;;;;;0.20;0.20;;;;;;;;;;5142760;27;20205;-74
2022/01/12 10:18:23;;;;;;;0.20;0.20;;;;;;;;;;5140334;27;20402;-75
2022/01/12 10:20:50;;;;;;;0.20;0.20;;;;;;;;;;5141119;27;20445;-75
2022/01/12 10:23:19;;;;;;;5.27;4.93;;;;;;;;;;5147270;27;20496;-75
2022/01/12 10:25:47;;;;;;;0.20;0.20;;;;;;;;;;5133978;27;20201;-75
2022/01/12 10:28:15;;;;;;;0.20;0.20;;;;;;;;;;5140950;27;20233;-76
2022/01/12 10:30:48;;;;;;;0.20;0.20;;;;;;;;;;5141928;27;20386;-75
2022/01/12 10:33:15;;;;;;;0.20;0.20;;;;;;;;;;5129678;27;20212;-74
2022/01/12 10:35:42;;;;;;;0.20;0.20;;;;;;;;;;5128711;27;20248;-75
2022/01/12 10:38:10;;;;;;;0.20;0.20;;;;;;;;;;5147370;27;20197;-74
2022/01/12 10:40:45;;;;;;;0.20;0.20;;;;;;;;;;5141554;27;20254;-74
2022/01/12 10:43:26;;;;;;;0.20;0.20;;;;;;;;;;5132992;27;20229;-76
2022/01/12 10:45:52;;;;;;;0.20;0.20;;;;;;;;;;5146667;27;20198;-74
2022/01/12 10:48:18;;;;;;;0.20;0.20;;;;;;;;;;5140552;27;20259;-74
2022/01/12 10:50:52;;;;;;;0.20;0.20;;;;;;;;;;5140795;27;20201;-75
2022/01/12 10:53:26;;;;;;;0.20;0.20;;;;;;;;;;5126807;28;20227;-74
2022/01/12 10:56:00;;;;;;;0.33;0.33;;;;;;;;;;5130461;27;20285;-74
2022/01/12 10:58:27;;;;;;;0.20;0.20;;;;;;;;;;5129144;27;20231;-75
2022/01/12 11:00:54;;;;;;;0.20;0.20;;;;;;;;;;5126214;28;20207;-76
2022/01/12 11:03:20;;;;;;;0.73;0.73;;;;;;;;;;5126360;28;20249;-75
2022/01/12 11:05:47;;;;;;;0.20;0.20;;;;;;;;;;5126339;28;20201;-77
2022/01/12 11:08:14;;;;;;;0.40;0.40;;;;;;;;;;5125842;28;20248;-76
2022/01/12 11:10:40;;;;;;;0.20;0.20;;;;;;;;;;5137415;27;20275;-74
2022/01/12 11:13:07;;;;;;;0.20;0.20;;;;;;;;;;5146644;27;20262;-75
2022/01/12 11:15:34;;;;;;;0.20;0.20;;;;;;;;;;5125736;28;20227;-74
2022/01/12 11:18:01;;;;;;;0.10;0.10;;;;;;;;;;5125503;27;20247;-75
2022/01/12 11:20:30;;;;;;;0.20;0.20;;;;;;;;;;5126529;28;20499;-76
2022/01/12 11:23:01;;;;;;;0.20;0.20;;;;;;;;;;5132003;27;20240;-72
2022/01/12 11:25:30;;;;;;;0.20;0.20;;;;;;;;;;5146562;27;20204;-75
2022/01/12 11:28:11;;;;;;;0.20;0.20;;;;;;;;;;5132365;27;20218;-75
2022/01/12 11:30:39;;;;;;;0.20;0.20;;;;;;;;;;5125335;28;20191;-74
2022/01/12 11:33:10;;;;;;;0.20;0.20;;;;;;;;;;5125927;28;20327;-74
2022/01/12 11:35:37;;;;;;;0.20;0.20;;;;;;;;;;5131279;27;20214;-74
2022/01/12 11:38:05;;;;;;;1.60;1.50;;;;;;;;;;5138768;27;20198;-74
2022/01/12 11:40:38;;;;;;;0.20;0.20;;;;;;;;;;5135091;27;20504;-75
2022/01/12 11:43:16;;;;;;;0.20;0.20;;;;;;;;;;5125741;27;20382;-73
2022/01/12 11:45:44;;;;;;;0.20;0.20;;;;;;;;;;5140398;27;20209;-74
2022/01/12 11:48:10;;;;;;;0.87;0.87;;;;;;;;;;5142558;27;20233;-75
2022/01/12 11:50:38;;;;;;;0.20;0.20;;;;;;;;;;5143218;27;20206;-75
2022/01/12 11:53:04;;;;;;;0.10;0.10;;;;;;;;;;5140121;27;20229;-75
2022/01/12 11:55:32;;;;;;;0.20;0.20;;;;;;;;;;5134905;27;20205;-75
2022/01/12 11:58:03;;;;;;;0.20;0.20;;;;;;;;;;5146252;27;20472;-75
2022/01/12 12:00:30;;;;;;;0.20;0.20;;;;;;;;;;5131980;27;20205;-74
2022/01/12 12:03:00;;;;;;;0.20;0.20;;;;;;;;;;5137651;27;20213;-74
2022/01/12 12:05:27;;;;;;;0.20;0.20;;;;;;;;;;5139336;27;20228;-67
2022/01/12 12:07:55;;;;;;;0.20;0.20;;;;;;;;;;5124861;28;20233;-66
2022/01/12 12:10:22;;;;;;;0.20;0.20;;;;;;;;;;5130742;27;20198;-64
2022/01/12 12:12:48;;;;;;;0.20;0.20;;;;;;;;;;5136676;27;20251;-67
2022/01/12 12:15:14;;;;;;;0.20;0.20;;;;;;;;;;5131181;27;20201;-64
2022/01/12 12:17:42;;;;;;;1.87;1.87;;;;;;;;;;5134656;27;20516;-73
2022/01/12 12:20:11;;;;;;;0.20;0.20;;;;;;;;;;5124962;28;20509;-72
2022/01/12 12:22:40;;;;;;;0.27;0.27;;;;;;;;;;5124985;27;20203;-72
2022/01/12 12:25:08;;;;;;;0.20;0.20;;;;;;;;;;5136910;27;20208;-74
2022/01/12 12:27:35;;;;;;;0.20;0.20;;;;;;;;;;5135212;27;20534;-73
2022/01/12 12:30:02;;;;;;;0.70;0.70;;;;;;;;;;5136589;27;20217;-73
2022/01/12 12:32:35;;;;;;;0.20;0.20;;;;;;;;;;5124830;28;20244;-73
2022/01/12 12:35:03;;;;;;;0.20;0.20;;;;;;;;;;5124326;28;20203;-74
2022/01/12 12:37:36;;;;;;;1.53;1.53;;;;;;;;;;5141461;27;20208;-74
2022/01/12 12:40:11;;;;;;;2.00;1.90;;;;;;;;;;5144897;27;20266;-74
2022/01/12 12:42:38;;;;;;;0.20;0.20;;;;;;;;;;5144943;27;20195;-75
2022/01/12 12:45:05;;;;;;;0.20;0.20;;;;;;;;;;5145188;27;20258;-75
2022/01/12 12:47:32;;;;;;;0.10;0.10;;;;;;;;;;5144831;27;20527;-76
2022/01/12 12:50:01;;;;;;;0.20;0.20;;;;;;;;;;5145070;27;20202;-75
2022/01/12 12:52:28;;;;;;;0.20;0.20;;;;;;;;;;5145085;27;20208;-74
2022/01/12 12:54:57;;;;;;;0.20;0.20;;;;;;;;;;5129701;27;20248;-75
2022/01/12 12:57:23;;;;;;;0.20;0.20;;;;;;;;;;5127401;27;20375;-75
2022/01/12 12:59:50;;;;;;;0.20;0.20;;;;;;;;;;5137062;27;20201;-75
2022/01/12 13:02:17;;;;;;;0.20;0.20;;;;;;;;;;5129820;27;20199;-75
2022/01/12 13:04:44;;;;;;;0.20;0.20;;;;;;;;;;5123642;28;20268;-75
2022/01/12 13:07:14;;;;;;;0.20;0.20;;;;;;;;;;5124199;28;20202;-75
2022/01/12 13:09:41;;;;;;;0.20;0.20;;;;;;;;;;5123788;28;20272;-76
2022/01/12 13:12:09;;;;;;;0.30;0.30;;;;;;;;;;5140857;27;20206;-76
2022/01/12 13:14:41;;;;;;;0.20;0.20;;;;;;;;;;5141318;27;20259;-75
2022/01/12 13:17:07;;;;;;;0.20;0.20;;;;;;;;;;5126341;27;20222;-75
2022/01/12 13:21:07;;;;;;;0.20;0.20;;;;;;;;;;5124102;28;20198;-75
2022/01/12 13:22:26;;;;;;;0.37;0.37;;;;;;;;;;5126504;27;20221;-75
2022/01/12 13:24:52;;;;;;;0.70;0.70;;;;;;;;;;5123447;28;20207;-75
2022/01/12 13:27:21;;;;;;;0.20;0.20;;;;;;;;;;5133672;27;20273;-76
2022/01/12 13:29:47;;;;;;;0.20;0.20;;;;;;;;;;5123429;28;20203;-74
2022/01/12 13:32:14;;;;;;;0.60;0.60;;;;;;;;;;5123282;28;20240;-74
2022/01/12 13:34:42;;;;;;;0.20;0.20;;;;;;;;;;5123550;28;20209;-73
2022/01/12 13:37:13;;;;;;;0.20;0.20;;;;;;;;;;5123507;28;20505;-73
2022/01/12 13:39:39;;;;;;;0.20;0.20;;;;;;;;;;5123598;28;20237;-73
2022/01/12 13:42:06;;;;;;;3.30;3.10;;;;;;;;;;5123167;28;20219;-73
2022/01/12 13:44:33;;;;;;;0.20;0.20;;;;;;;;;;5123487;28;20202;-73
2022/01/12 13:47:06;;;;;;;0.20;0.20;;;;;;;;;;5123085;28;20506;-72
2022/01/12 13:49:32;;;;;;;0.20;0.20;;;;;;;;;;5123072;28;20239;-73
2022/01/12 13:51:59;;;;;;;0.20;0.20;;;;;;;;;;5123079;28;20210;-73
2022/01/12 13:54:28;;;;;;;0.20;0.20;;;;;;;;;;5127079;28;20477;-74
2022/01/12 13:56:55;;;;;;;0.20;0.20;;;;;;;;;;5127506;27;20203;-73
2022/01/12 13:59:25;;;;;;;0.10;0.10;;;;;;;;;;5127134;27;20199;-73
2022/01/12 14:01:52;;;;;;;0.20;0.20;;;;;;;;;;5127355;28;20202;-73
2022/01/12 14:04:28;;;;;;;0.10;0.10;;;;;;;;;;5127447;28;20497;-73
2022/01/12 14:07:00;;;;;;;0.20;0.20;;;;;;;;;;5127286;28;20243;-73
2022/01/12 14:09:30;;;;;;;0.20;0.20;;;;;;;;;;5127137;28;20478;-71
2022/01/12 14:11:57;;;;;;;0.20;0.20;;;;;;;;;;5127368;28;20435;-74
2022/01/12 14:14:23;;;;;;;32.37;10.87;;;;;;;;;;5127122;28;20206;-74
2022/01/12 14:16:50;;;;;;;0.20;0.20;;;;;;;;;;5126946;28;20226;-74
2022/01/12 14:19:18;;;;;;;0.20;0.20;;;;;;;;;;5126780;28;20188;-73
2022/01/12 14:21:54;;;;;;;0.20;0.20;;;;;;;;;;5127049;27;20245;-74
2022/01/12 14:24:20;;;;;;;0.40;0.40;;;;;;;;;;5127118;28;20192;-73
2022/01/12 14:26:46;;;;;;;0.20;0.20;;;;;;;;;;5127433;28;20202;-72
2022/01/12 14:29:13;;;;;;;0.20;0.20;;;;;;;;;;5126525;27;20455;-73
2022/01/12 14:31:40;;;;;;;0.20;0.20;;;;;;;;;;5133778;27;20473;-74
2022/01/12 14:34:06;;;;;;;0.20;0.20;;;;;;;;;;5141763;27;20208;-73
2022/01/12 14:36:34;;;;;;;0.20;0.20;;;;;;;;;;5146723;27;20261;-73
2022/01/12 14:39:01;;;;;;;0.20;0.20;;;;;;;;;;5146997;27;20226;-74
2022/01/12 14:41:27;;;;;;;0.20;0.20;;;;;;;;;;5146771;27;20224;-75
2022/01/12 14:43:53;;;;;;;0.10;0.10;;;;;;;;;;5146995;27;20481;-76
2022/01/12 14:46:20;;;;;;;0.20;0.20;;;;;;;;;;5147205;27;20201;-76
2022/01/12 14:48:47;;;;;;;0.20;0.20;;;;;;;;;;5147103;27;20217;-76
2022/01/12 14:51:13;;;;;;;0.13;0.13;;;;;;;;;;5126372;27;20207;-76
2022/01/12 14:53:42;;;;;;;0.47;0.47;;;;;;;;;;5126177;28;20386;-74
2022/01/12 14:56:08;;;;;;;0.53;0.53;;;;;;;;;;5141791;27;20206;-75
2022/01/12 14:58:35;;;;;;;0.40;0.40;;;;;;;;;;5135882;27;20232;-75
2022/01/12 15:01:02;;;;;;;0.40;0.40;;;;;;;;;;5126703;28;20471;-75
2022/01/12 15:03:28;;;;;;;0.20;0.20;;;;;;;;;;5128353;27;20198;-76
2022/01/12 15:05:58;;;;;;;0.20;0.20;;;;;;;;;;5138286;27;20569;-76
2022/01/12 15:08:24;;;;;;;0.20;0.20;;;;;;;;;;5131345;27;20228;-76
2022/01/12 15:10:52;;;;;;;1.27;1.27;;;;;;;;;;5134203;27;20202;-74
2022/01/12 15:13:22;;;;;;;0.20;0.20;;;;;;;;;;5132454;27;20207;-74
2022/01/12 15:15:49;;;;;;;2.00;1.90;;;;;;;;;;5125766;27;20264;-74
2022/01/12 15:18:15;;;;;;;5.87;1.90;;;;;;;;;;5131223;27;20210;-74
2022/01/12 15:20:41;;;;;;;0.20;0.20;;;;;;;;;;5125621;28;20244;-73
2022/01/12 15:23:08;;;;;;;0.20;0.20;;;;;;;;;;5135484;27;20205;-74
2022/01/12 15:25:34;;;;;;;0.20;0.20;;;;;;;;;;5146137;27;20206;-73
2022/01/12 15:28:06;;;;;;;0.20;0.20;;;;;;;;;;5146228;27;20383;-74
2022/01/12 15:30:33;;;;;;;0.20;0.20;;;;;;;;;;5137870;27;20205;-74
2022/01/12 15:33:00;;;;;;;0.20;0.20;;;;;;;;;;5131823;27;20208;-74
2022/01/12 15:35:26;;;;;;;1.07;1.07;;;;;;;;;;5130798;27;20361;-73
2022/01/12 15:37:53;;;;;;;0.20;0.20;;;;;;;;;;5128927;27;20205;-73
2022/01/12 15:40:19;;;;;;;0.20;0.20;;;;;;;;;;5133406;27;20220;-75
2022/01/12 15:42:45;;;;;;;0.20;0.20;;;;;;;;;;5144904;27;20211;-72
2022/01/12 15:45:13;;;;;;;0.20;0.20;;;;;;;;;;5138201;27;20361;-75
2022/01/12 15:47:39;;;;;;;0.20;0.20;;;;;;;;;;5125429;28;20248;-73
2022/01/12 15:50:06;;;;;;;0.20;0.20;;;;;;;;;;5125201;28;20238;-75
2022/01/12 15:52:33;;;;;;;0.20;0.20;;;;;;;;;;5125346;28;20204;-73
2022/01/12 15:54:59;;;;;;;0.20;0.20;;;;;;;;;;5125448;27;20201;-73